Time;durP1;ratioP1;P1;durP2;ratioP2;P2;SDS_P1;SDS_P2;PMS_P1;PMS_P2;Temp;Humidity;BMP_temperature;BMP_pressure;BME280_temperature;BME280_humidity;BME280_pressure;Samples;Min_cycle;Max_cycle;Signal;HPM_P1;HPM_P2
2021/07/30 00:00:12;;;;;;;3.87;2.70;;;;;;;21.70;72.66;99472.80;1771632;80;21318;-77
2021/07/30 00:02:39;;;;;;;4.90;2.25;;;;;;;21.70;72.55;99476.83;1759940;80;21012;-77
2021/07/30 00:05:07;;;;;;;3.02;2.30;;;;;;;21.69;72.41;99477.34;1750032;80;21356;-77
2021/07/30 00:07:34;;;;;;;3.70;2.47;;;;;;;21.67;72.35;99476.75;1760232;80;21871;-77
2021/07/30 00:10:02;;;;;;;4.28;2.05;;;;;;;21.66;72.35;99471.07;1771589;80;20985;-77
2021/07/30 00:12:29;;;;;;;4.40;2.35;;;;;;;21.63;72.45;99472.86;1776417;80;20961;-77
2021/07/30 00:14:56;;;;;;;3.60;2.42;;;;;;;21.57;72.45;99464.30;1779874;80;20984;-77
2021/07/30 00:17:23;;;;;;;3.40;2.10;;;;;;;21.56;72.56;99470.72;1780772;80;21008;-77
2021/07/30 00:19:49;;;;;;;4.58;2.17;;;;;;;21.54;72.58;99466.08;1773136;80;21840;-77
2021/07/30 00:22:16;;;;;;;3.47;2.30;;;;;;;21.55;72.55;99477.13;1765710;80;21040;-78
2021/07/30 00:24:42;;;;;;;4.95;2.52;;;;;;;21.57;72.55;99482.28;1743437;80;21001;-78
2021/07/30 00:27:09;;;;;;;3.55;2.20;;;;;;;21.58;72.55;99481.25;1752749;80;20949;-78
2021/07/30 00:29:37;;;;;;;4.12;2.50;;;;;;;21.59;72.62;99485.58;1755282;80;21482;-78
2021/07/30 00:32:06;;;;;;;5.17;2.30;;;;;;;21.63;72.60;99482.27;1755394;80;21856;-78
2021/07/30 00:34:33;;;;;;;4.42;2.40;;;;;;;21.68;72.58;99478.91;1755844;80;21036;-77
2021/07/30 00:37:00;;;;;;;4.70;2.50;;;;;;;21.67;72.55;99486.16;1761162;80;20975;-78
2021/07/30 00:39:27;;;;;;;3.87;2.27;;;;;;;21.55;72.86;99481.16;1739017;80;21004;-77
2021/07/30 00:41:53;;;;;;;4.87;2.60;;;;;;;21.50;73.04;99485.00;1743709;80;21035;-77
2021/07/30 00:44:20;;;;;;;5.50;2.70;;;;;;;21.45;73.19;99486.17;1727907;80;21842;-77
2021/07/30 00:46:47;;;;;;;3.08;2.45;;;;;;;21.42;73.32;99487.44;1774631;80;21029;-78
2021/07/30 00:49:16;;;;;;;3.27;2.55;;;;;;;21.40;73.37;99496.72;1744680;80;21540;-78
2021/07/30 00:51:45;;;;;;;3.37;2.40;;;;;;;21.47;73.21;99496.70;1745515;80;21440;-78
2021/07/30 00:54:21;;;;;;;4.85;2.62;;;;;;;21.46;73.24;99512.52;1757811;80;21056;-78
2021/07/30 00:56:53;;;;;;;3.55;2.42;;;;;;;21.45;73.24;99508.19;1734578;82;21001;-77
2021/07/30 00:59:22;;;;;;;4.35;2.58;;;;;;;21.42;73.25;99518.82;1735006;82;20960;-77
2021/07/30 01:01:51;;;;;;;6.33;2.90;;;;;;;21.39;73.27;99517.91;1750585;80;21118;-78
2021/07/30 01:04:26;;;;;;;4.35;3.02;;;;;;;21.39;73.25;99531.34;1701306;82;20976;-78
2021/07/30 01:06:58;;;;;;;4.50;3.08;;;;;;;21.39;73.18;99530.82;1749681;81;21003;-78
2021/07/30 01:09:28;;;;;;;4.00;2.90;;;;;;;21.37;73.07;99532.91;1749744;81;21851;-78
2021/07/30 01:12:02;;;;;;;4.80;3.12;;;;;;;21.25;73.26;99538.60;1742918;80;21011;-78
2021/07/30 01:14:30;;;;;;;3.95;2.95;;;;;;;21.29;73.06;99538.50;1731138;80;20965;-77
2021/07/30 01:17:01;;;;;;;4.22;3.12;;;;;;;21.27;73.04;99538.42;1765984;80;20995;-78
2021/07/30 01:19:30;;;;;;;6.05;2.90;;;;;;;21.24;73.09;99536.95;1747163;80;20970;-79
2021/07/30 01:22:11;;;;;;;4.35;3.33;;;;;;;21.25;73.12;99532.41;1722595;83;21854;-83
2021/07/30 01:24:44;;;;;;;4.10;3.25;;;;;;;21.24;73.10;99532.11;1759219;80;21004;-83
2021/07/30 01:27:15;;;;;;;;;;;;;;;21.24;73.04;99532.11;1746127;81;20993;-83
2021/07/30 01:29:45;;;;;;;5.35;3.15;;;;;;;21.24;72.99;99537.47;1743267;82;20484;-83
2021/07/30 01:32:16;;;;;;;5.12;3.00;;;;;;;21.21;73.06;99529.82;1738611;82;21062;-83
2021/07/30 01:34:44;;;;;;;4.10;3.05;;;;;;;21.16;73.09;99542.55;1737548;82;21851;-83
2021/07/30 01:37:11;;;;;;;5.12;3.10;;;;;;;21.14;73.15;99543.28;1737482;82;21450;-83
2021/07/30 01:39:38;;;;;;;4.72;3.02;;;;;;;21.09;73.11;99539.88;1737528;82;20967;-83
2021/07/30 01:42:05;;;;;;;4.42;3.10;;;;;;;21.06;73.16;99543.50;1737564;82;21403;-83
2021/07/30 01:44:31;;;;;;;4.33;2.90;;;;;;;21.04;73.18;99546.92;1742242;82;20970;-85
2021/07/30 01:46:58;;;;;;;4.92;3.40;;;;;;;20.99;73.24;99554.77;1743615;82;21866;-85
2021/07/30 01:49:24;;;;;;;4.53;3.20;;;;;;;20.89;73.42;99561.08;1743522;82;21001;-86
2021/07/30 01:51:51;;;;;;;5.47;3.10;;;;;;;20.77;73.62;99550.98;1748676;82;20996;-83
2021/07/30 01:54:18;;;;;;;4.50;3.30;;;;;;;20.73;73.78;99556.44;1749672;82;20996;-83
2021/07/30 01:56:45;;;;;;;3.60;3.05;;;;;;;20.71;73.88;99556.34;1749723;81;21000;-82
2021/07/30 01:59:12;;;;;;;3.65;3.25;;;;;;;20.68;73.93;99554.91;1750020;82;22206;-82
2021/07/30 02:01:39;;;;;;;5.35;3.40;;;;;;;20.67;74.08;99559.14;1748486;82;20989;-83
2021/07/30 02:04:06;;;;;;;5.22;2.87;;;;;;;20.69;74.12;99559.76;1743661;82;21010;-83
2021/07/30 02:06:32;;;;;;;5.70;3.25;;;;;;;20.70;74.05;99557.38;1743587;82;20946;-83
2021/07/30 02:09:00;;;;;;;4.75;3.27;;;;;;;20.68;74.05;99561.62;1743606;82;21425;-83
2021/07/30 02:11:26;;;;;;;3.60;3.17;;;;;;;20.69;73.90;99551.19;1743558;82;22654;-82
2021/07/30 02:16:38;;;;;;;5.95;3.42;;;;;;;20.63;73.77;99567.28;1748239;82;20985;-82
2021/07/30 02:19:05;;;;;;;7.25;3.25;;;;;;;20.59;73.83;99564.20;1718575;82;20989;-82
2021/07/30 02:21:31;;;;;;;4.47;3.10;;;;;;;20.56;73.86;99569.98;1749413;81;20943;-82
2021/07/30 02:23:57;;;;;;;4.78;3.20;;;;;;;20.54;73.89;99572.02;1762114;80;21800;-82
2021/07/30 02:26:25;;;;;;;5.20;3.25;;;;;;;20.54;73.88;99574.19;1781694;80;21122;-82
2021/07/30 02:28:55;;;;;;;5.12;3.10;;;;;;;20.55;73.92;99575.84;1786498;80;20957;-83
2021/07/30 02:31:23;;;;;;;4.55;3.15;;;;;;;20.57;73.90;99569.77;1782116;80;20962;-83
2021/07/30 02:33:50;;;;;;;5.85;3.95;;;;;;;20.59;73.87;99580.30;1765838;80;20983;-82
2021/07/30 02:36:17;;;;;;;5.20;3.92;;;;;;;20.59;73.90;99584.31;1736805;81;21832;-83
2021/07/30 02:38:44;;;;;;;6.25;4.47;;;;;;;20.58;73.97;99588.03;1755143;81;21497;-82
2021/07/30 02:41:10;;;;;;;6.87;4.60;;;;;;;20.56;73.95;99584.22;1755030;81;21471;-83
2021/07/30 02:43:37;;;;;;;6.25;4.85;;;;;;;20.57;73.97;99589.07;1755225;81;21052;-83
2021/07/30 02:46:04;;;;;;;5.87;4.40;;;;;;;20.56;73.91;99593.61;1750560;80;21413;-82
2021/07/30 02:48:31;;;;;;;5.45;4.53;;;;;;;20.51;73.88;99596.07;1749118;81;22652;-83
2021/07/30 02:50:58;;;;;;;4.85;4.22;;;;;;;20.49;73.93;99597.31;1751483;81;20942;-82
2021/07/30 02:53:25;;;;;;;5.62;4.60;;;;;;;20.48;73.92;99595.14;1750846;80;21413;-82
2021/07/30 02:55:51;;;;;;;5.15;3.95;;;;;;;20.46;73.89;99602.58;1762360;80;21388;-83
2021/07/30 02:58:18;;;;;;;7.00;4.67;;;;;;;20.46;73.94;99600.38;1756569;80;20965;-83
2021/07/30 03:00:45;;;;;;;5.97;4.87;;;;;;;20.45;74.03;99600.08;1751883;80;22268;-82
2021/07/30 03:03:11;;;;;;;6.12;4.50;;;;;;;20.47;74.06;99599.38;1702851;83;20965;-82
2021/07/30 03:05:38;;;;;;;7.50;4.30;;;;;;;20.50;74.09;99598.96;1727061;82;21664;-81
2021/07/30 03:08:05;;;;;;;6.17;4.20;;;;;;;20.51;74.05;99597.92;1708888;83;21579;-82
2021/07/30 03:10:31;;;;;;;5.30;3.95;;;;;;;20.54;74.10;99593.48;1698264;83;21028;-82
2021/07/30 03:12:59;;;;;;;6.40;4.10;;;;;;;20.57;74.11;99599.80;1716299;82;22253;-82
2021/07/30 03:15:25;;;;;;;5.15;4.03;;;;;;;20.60;74.08;99604.75;1716004;82;21081;-80
2021/07/30 03:17:53;;;;;;;7.20;4.20;;;;;;;20.60;74.08;99610.63;1714298;83;21550;-82
2021/07/30 03:20:20;;;;;;;6.67;4.37;;;;;;;20.60;74.13;99614.66;1717891;83;21067;-81
2021/07/30 03:22:46;;;;;;;6.72;4.28;;;;;;;20.61;74.24;99616.30;1737187;82;21056;-82
2021/07/30 03:25:13;;;;;;;5.03;4.17;;;;;;;20.61;74.26;99618.98;1705657;82;22205;-81
2021/07/30 03:27:42;;;;;;;5.60;4.55;;;;;;;20.63;74.33;99618.26;1685093;83;21394;-82
2021/07/30 03:30:10;;;;;;;5.47;4.42;;;;;;;20.67;74.31;99628.91;1701678;83;21076;-82
2021/07/30 03:32:37;;;;;;;5.85;4.37;;;;;;;20.68;74.31;99628.70;1667946;84;21026;-81
2021/07/30 03:35:04;;;;;;;5.67;4.30;;;;;;;20.70;74.33;99629.83;1695046;83;20967;-82
2021/07/30 03:37:30;;;;;;;5.95;4.20;;;;;;;20.71;74.35;99621.58;1714127;82;21875;-83
2021/07/30 03:39:56;;;;;;;6.10;4.12;;;;;;;20.77;74.37;99633.35;1667755;84;21012;-82
2021/07/30 03:42:23;;;;;;;7.00;3.85;;;;;;;20.80;74.37;99630.25;1713951;83;20941;-82
2021/07/30 03:44:49;;;;;;;6.90;4.00;;;;;;;20.82;74.33;99634.89;1694805;83;20997;-83
2021/07/30 03:47:16;;;;;;;5.62;3.75;;;;;;;20.82;74.29;99633.03;1688276;84;21005;-82
2021/07/30 03:49:42;;;;;;;6.30;4.28;;;;;;;20.84;74.20;99640.87;1684992;82;22455;-82
2021/07/30 03:52:09;;;;;;;6.12;3.80;;;;;;;20.83;74.22;99631.17;1709502;83;21423;-82
2021/07/30 03:54:35;;;;;;;7.37;4.50;;;;;;;20.87;74.24;99640.48;1707373;82;21057;-82
2021/07/30 03:57:02;;;;;;;7.50;4.45;;;;;;;20.89;74.28;99641.09;1698557;82;20966;-82
2021/07/30 03:59:28;;;;;;;8.38;4.80;;;;;;;20.93;74.25;99642.84;1706769;82;21040;-82
2021/07/30 04:01:55;;;;;;;7.60;4.80;;;;;;;20.92;74.23;99644.70;1714033;83;22261;-83
2021/07/30 04:04:22;;;;;;;5.92;4.60;;;;;;;20.93;74.33;99638.81;1678206;84;21372;-83
2021/07/30 04:06:48;;;;;;;6.25;4.95;;;;;;;20.95;74.44;99646.16;1694707;83;21091;-84
2021/07/30 04:09:15;;;;;;;7.22;4.85;;;;;;;20.98;74.45;99649.25;1716024;83;21065;-83
2021/07/30 04:11:42;;;;;;;7.45;5.15;;;;;;;21.03;74.52;99647.27;1680597;84;20980;-82
2021/07/30 04:14:09;;;;;;;7.03;4.75;;;;;;;21.08;74.48;99652.34;1711191;82;22694;-84
2021/07/30 04:16:36;;;;;;;11.30;4.75;;;;;;;21.13;74.49;99653.91;1712876;83;21062;-83
2021/07/30 04:19:04;;;;;;;5.28;4.78;;;;;;;21.19;74.47;99657.59;1717925;83;20974;-84
2021/07/30 04:21:31;;;;;;;8.75;4.75;;;;;;;21.23;74.53;99656.17;1724309;83;21009;-82
2021/07/30 04:24:00;;;;;;;6.17;5.20;;;;;;;21.29;74.63;99656.69;1716473;83;21059;-81
2021/07/30 04:26:28;;;;;;;7.25;5.53;;;;;;;21.37;74.61;99659.68;1712101;83;21845;-82
2021/07/30 04:28:54;;;;;;;7.70;5.30;;;;;;;21.42;74.52;99662.55;1715774;83;21107;-81
2021/07/30 04:31:20;;;;;;;9.55;6.20;;;;;;;21.44;74.56;99661.84;1715509;83;21103;-81
2021/07/30 04:33:47;;;;;;;10.40;5.85;;;;;;;21.48;74.53;99652.31;1719449;83;20996;-77
2021/07/30 04:36:15;;;;;;;7.25;5.60;;;;;;;21.50;74.44;99654.27;1721091;82;21089;-75
2021/07/30 04:38:43;;;;;;;6.67;5.65;;;;;;;21.53;74.42;99648.50;1719069;83;21860;-79
2021/07/30 04:41:10;;;;;;;8.88;5.22;;;;;;;21.56;74.46;99642.69;1717549;82;21412;-77
2021/07/30 04:43:37;;;;;;;6.25;5.10;;;;;;;21.62;74.37;99650.44;1719308;83;21433;-78
2021/07/30 04:46:03;;;;;;;9.98;5.90;;;;;;;21.66;74.25;99649.80;1719174;83;22435;-74
2021/07/30 04:48:31;;;;;;;6.53;5.30;;;;;;;21.75;74.18;99649.05;1719331;82;20964;-75
2021/07/30 04:51:01;;;;;;;8.90;5.28;;;;;;;21.86;74.04;99646.22;1719988;82;21878;-75
2021/07/30 04:53:28;;;;;;;6.97;5.28;;;;;;;21.94;73.85;99646.80;1719101;83;21045;-76
2021/07/30 04:55:55;;;;;;;8.40;4.92;;;;;;;22.04;73.70;99648.22;1721115;82;21121;-74
2021/07/30 04:58:21;;;;;;;9.78;6.12;;;;;;;22.14;73.67;99644.58;1729290;82;21000;-76
2021/07/30 05:00:48;;;;;;;8.55;5.80;;;;;;;22.22;73.49;99650.53;1719512;82;21022;-76
2021/07/30 05:03:15;;;;;;;8.93;5.60;;;;;;;22.33;73.35;99651.71;1718124;83;22554;-76
2021/07/30 05:05:42;;;;;;;9.65;5.90;;;;;;;22.44;73.24;99650.20;1718205;83;21030;-76
2021/07/30 05:08:08;;;;;;;7.75;6.00;;;;;;;22.56;73.23;99661.39;1718989;83;20999;-76
2021/07/30 05:10:34;;;;;;;11.35;6.20;;;;;;;22.69;72.78;99659.16;1718544;83;21484;-76
2021/07/30 05:13:01;;;;;;;11.03;6.22;;;;;;;22.82;72.71;99658.22;1719185;82;21518;-76
2021/07/30 05:15:27;;;;;;;8.75;6.87;;;;;;;22.93;72.40;99659.41;1711565;82;21756;-76
2021/07/30 05:17:54;;;;;;;8.13;6.42;;;;;;;23.03;72.10;99657.05;1719635;83;21504;-77
2021/07/30 05:20:20;;;;;;;9.28;6.53;;;;;;;23.11;71.81;99654.08;1719348;83;20977;-76
2021/07/30 05:22:47;;;;;;;8.28;6.90;;;;;;;23.18;71.59;99657.55;1717190;83;21017;-78
2021/07/30 05:25:14;;;;;;;9.68;7.25;;;;;;;23.23;71.33;99657.69;1720978;82;20971;-80
2021/07/30 05:27:40;;;;;;;8.68;7.25;;;;;;;23.30;71.27;99659.81;1719425;82;22229;-79
2021/07/30 05:30:08;;;;;;;13.53;8.08;;;;;;;23.39;71.10;99653.61;1718879;82;21112;-80
2021/07/30 05:32:34;;;;;;;9.90;7.42;;;;;;;23.47;70.61;99658.72;1705705;83;21041;-81
2021/07/30 05:35:01;;;;;;;8.68;7.00;;;;;;;23.53;70.40;99662.38;1719219;83;21052;-85
2021/07/30 05:37:28;;;;;;;8.80;7.00;;;;;;;23.61;70.31;99671.55;1719200;83;21024;-88
2021/07/30 05:39:54;;;;;;;9.08;7.15;;;;;;;23.63;69.66;99666.23;1719892;82;21903;-85
2021/07/30 05:42:21;;;;;;;8.98;7.00;;;;;;;23.67;69.45;99668.80;1700491;83;21009;-83
2021/07/30 05:44:49;;;;;;;7.55;6.33;;;;;;;23.74;69.41;99662.48;1718973;83;21384;-83
2021/07/30 05:47:15;;;;;;;9.60;6.60;;;;;;;23.82;68.66;99666.23;1718758;83;21408;-88
2021/07/30 05:49:41;;;;;;;7.35;6.03;;;;;;;23.85;68.33;99670.67;1719705;83;20953;-84
2021/07/30 05:52:08;;;;;;;7.83;7.03;;;;;;;23.88;67.83;99664.82;1719345;83;22207;-77
2021/07/30 05:54:36;;;;;;;10.32;6.40;;;;;;;23.91;67.11;99674.33;1717354;83;21039;-82
2021/07/30 05:57:04;;;;;;;8.45;6.65;;;;;;;23.91;67.05;99671.10;1691350;84;21056;-82
2021/07/30 05:59:31;;;;;;;10.40;7.05;;;;;;;23.96;67.37;99669.91;1716492;83;21019;-82
2021/07/30 06:01:59;;;;;;;9.33;6.90;;;;;;;24.06;67.29;99672.61;1705361;83;20969;-79
2021/07/30 06:04:25;;;;;;;10.00;6.97;;;;;;;24.13;67.33;99667.43;1702054;83;22160;-78
2021/07/30 06:06:54;;;;;;;10.18;7.10;;;;;;;24.21;66.93;99673.84;1702339;83;21047;-80
2021/07/30 06:09:20;;;;;;;11.08;7.40;;;;;;;24.24;66.29;99673.41;1697843;82;21100;-84
2021/07/30 06:11:47;;;;;;;11.30;7.50;;;;;;;24.26;66.42;99670.47;1716728;82;21081;-83
2021/07/30 06:14:13;;;;;;;9.50;7.55;;;;;;;24.30;66.34;99676.23;1689662;83;21528;-82
2021/07/30 06:16:40;;;;;;;9.53;7.33;;;;;;;24.35;66.36;99673.18;1684481;85;22595;-81
2021/07/30 06:19:06;;;;;;;9.55;6.97;;;;;;;24.39;66.26;99668.96;1689909;84;21007;-82
2021/07/30 06:21:33;;;;;;;9.65;7.03;;;;;;;24.45;66.41;99674.80;1683565;85;21334;-82
2021/07/30 06:24:01;;;;;;;9.05;7.08;;;;;;;24.54;65.85;99669.91;1712578;83;21049;-82
2021/07/30 06:26:27;;;;;;;8.30;7.00;;;;;;;24.60;65.58;99674.89;1697599;84;21505;-80
2021/07/30 06:28:54;;;;;;;8.15;7.10;;;;;;;24.66;65.60;99675.34;1679983;85;22427;-83
2021/07/30 06:31:20;;;;;;;9.43;6.92;;;;;;;24.74;65.25;99677.71;1681225;85;20964;-84
2021/07/30 06:33:46;;;;;;;7.58;6.00;;;;;;;24.79;64.46;99677.30;1742464;81;21040;-84
2021/07/30 06:36:16;;;;;;;11.05;6.17;;;;;;;24.86;63.14;99679.91;1719898;80;21063;-83
2021/07/30 06:38:43;;;;;;;6.50;5.87;;;;;;;24.91;61.60;99686.80;1773390;80;21051;-83
2021/07/30 06:41:14;;;;;;;7.78;6.65;;;;;;;24.98;60.88;99687.50;1758685;80;22243;-82
2021/07/30 06:43:42;;;;;;;21.97;7.87;;;;;;;25.02;60.89;99684.67;1744115;80;21471;-83
2021/07/30 06:46:15;;;;;;;205.05;24.92;;;;;;;25.11;60.74;99684.62;1759083;80;20988;-82
2021/07/30 06:48:42;;;;;;;11.40;7.10;;;;;;;25.15;60.11;99688.20;1749561;81;21372;-82
2021/07/30 06:51:12;;;;;;;152.75;16.12;;;;;;;25.17;59.55;99695.55;1748283;81;20973;-81
2021/07/30 06:53:38;;;;;;;23.75;7.58;;;;;;;25.21;60.14;99696.74;1722617;82;22203;-81
2021/07/30 06:56:13;;;;;;;117.93;15.15;;;;;;;25.25;59.00;99690.63;1721533;83;20956;-82
2021/07/30 06:58:40;;;;;;;12.20;6.25;;;;;;;25.31;59.62;99691.58;1721235;83;21080;-83
2021/07/30 07:01:07;;;;;;;6.50;5.90;;;;;;;25.42;59.21;99685.34;1721397;83;21024;-82
2021/07/30 07:03:33;;;;;;;38.35;9.13;;;;;;;25.48;58.79;99692.52;1724672;81;21078;-80
2021/07/30 07:06:00;;;;;;;6.35;5.75;;;;;;;25.51;58.45;99687.17;1760969;80;22201;-81
2021/07/30 07:08:26;;;;;;;100.90;15.63;;;;;;;25.51;57.96;99693.92;1743565;82;21019;-83
2021/07/30 07:10:53;;;;;;;7.05;5.92;;;;;;;25.49;58.05;99692.81;1748537;82;21046;-84
2021/07/30 07:13:21;;;;;;;7.15;5.15;;;;;;;25.48;57.37;99693.02;1748377;82;21045;-84
2021/07/30 07:15:49;;;;;;;8.65;5.33;;;;;;;25.49;57.30;99684.70;1748485;82;21077;-86
2021/07/30 07:18:15;;;;;;;6.42;5.60;;;;;;;25.51;56.67;99681.77;1748580;82;21822;-83
2021/07/30 07:20:42;;;;;;;37.80;7.83;;;;;;;25.54;57.07;99686.16;1756301;80;21087;-84
2021/07/30 07:23:08;;;;;;;13.43;6.35;;;;;;;25.61;57.19;99696.86;1771368;80;21080;-85
2021/07/30 07:25:35;;;;;;;29.10;6.87;;;;;;;25.62;56.29;99687.69;1738310;80;21496;-84
2021/07/30 07:28:02;;;;;;;10.13;5.37;;;;;;;25.65;56.63;99694.78;1758739;80;21517;-86
2021/07/30 07:30:28;;;;;;;8.08;5.37;;;;;;;25.71;56.78;99693.05;1710674;83;22203;-84
2021/07/30 07:32:54;;;;;;;182.93;20.82;;;;;;;25.78;56.82;99696.47;1729526;82;21028;-83
2021/07/30 07:35:21;;;;;;;10.38;5.70;;;;;;;25.84;56.54;99694.14;1742560;82;21060;-82
2021/07/30 07:37:47;;;;;;;47.27;9.05;;;;;;;25.95;56.40;99688.41;1742366;82;21016;-82
2021/07/30 07:40:13;;;;;;;8.93;6.42;;;;;;;26.07;56.08;99701.94;1742761;82;21044;-82
2021/07/30 07:42:40;;;;;;;36.80;7.37;;;;;;;26.13;55.59;99693.66;1745745;80;22370;-82
2021/07/30 07:45:08;;;;;;;8.23;5.20;;;;;;;26.20;55.77;99688.94;1765339;80;20934;-83
2021/07/30 07:47:35;;;;;;;7.72;5.08;;;;;;;26.30;55.04;99694.27;1748434;81;21037;-82
2021/07/30 07:50:03;;;;;;;7.42;6.05;;;;;;;26.33;54.39;99696.48;1743415;81;21032;-80
2021/07/30 07:52:33;;;;;;;39.80;8.85;;;;;;;26.35;53.64;99699.27;1718370;82;21003;-81
2021/07/30 07:54:59;;;;;;;12.58;5.65;;;;;;;26.35;54.53;99697.09;1687833;83;21804;-78
2021/07/30 07:57:26;;;;;;;8.78;5.62;;;;;;;26.42;54.48;99698.59;1714893;83;21507;-78
2021/07/30 07:59:52;;;;;;;7.83;5.12;;;;;;;26.43;53.73;99692.64;1736478;81;21960;-81
2021/07/30 08:02:18;;;;;;;21.48;6.67;;;;;;;26.41;53.92;99694.78;1743294;82;21041;-80
2021/07/30 08:04:45;;;;;;;41.25;9.28;;;;;;;26.47;53.05;99689.77;1742943;82;21504;-75
2021/07/30 08:07:15;;;;;;;6.00;4.90;;;;;;;26.56;53.27;99697.79;1742570;82;21807;-77
2021/07/30 08:09:40;;;;;;;6.53;5.05;;;;;;;26.59;51.59;99695.94;1742051;82;21083;-78
2021/07/30 08:12:06;;;;;;;5.78;5.20;;;;;;;26.55;52.43;99693.44;1742401;81;21032;-75
2021/07/30 08:14:33;;;;;;;6.78;4.80;;;;;;;26.58;53.02;99690.23;1742500;82;20998;-82
2021/07/30 08:17:00;;;;;;;12.05;4.90;;;;;;;26.71;52.47;99689.92;1755418;80;21004;-85
2021/07/30 08:19:26;;;;;;;7.90;4.65;;;;;;;26.87;52.39;99692.91;1733278;82;21826;-81
2021/07/30 08:21:53;;;;;;;6.12;5.10;;;;;;;26.97;51.70;99689.02;1733186;82;21091;-84
2021/07/30 08:24:20;;;;;;;7.85;5.03;;;;;;;27.08;51.75;99695.73;1733407;81;22213;-81
2021/07/30 08:26:46;;;;;;;7.37;5.10;;;;;;;27.05;51.54;99694.88;1733147;81;21056;-80
2021/07/30 08:29:16;;;;;;;6.22;4.90;;;;;;;27.01;52.28;99685.55;1736396;81;21066;-80
2021/07/30 08:31:42;;;;;;;5.55;4.97;;;;;;;27.04;52.13;99681.58;1713910;82;21808;-80
2021/07/30 08:34:11;;;;;;;9.23;5.22;;;;;;;27.07;51.71;99683.25;1729396;82;20971;-81
2021/07/30 08:36:38;;;;;;;11.43;5.20;;;;;;;27.10;52.28;99684.11;1726022;83;21151;-80
2021/07/30 08:39:04;;;;;;;7.58;5.28;;;;;;;27.22;52.38;99688.11;1726661;81;21041;-79
2021/07/30 08:41:30;;;;;;;7.62;5.15;;;;;;;27.22;51.83;99679.98;1732302;81;21057;-79
2021/07/30 08:43:57;;;;;;;5.33;4.80;;;;;;;27.29;52.31;99685.21;1725597;81;22615;-79
2021/07/30 08:46:27;;;;;;;5.97;5.28;;;;;;;27.33;51.27;99679.59;1691022;83;21062;-79
2021/07/30 08:48:54;;;;;;;13.83;5.45;;;;;;;27.15;52.20;99679.31;1685693;84;21017;-79
2021/07/30 08:51:22;;;;;;;7.53;5.80;;;;;;;27.16;52.39;99678.25;1675708;84;21627;-79
2021/07/30 08:53:49;;;;;;;7.87;5.58;;;;;;;27.28;52.07;99678.15;1695716;84;21025;-84
2021/07/30 08:56:16;;;;;;;8.40;5.28;;;;;;;27.42;51.97;99680.00;1692010;84;21854;-80
2021/07/30 08:58:43;;;;;;;9.05;5.28;;;;;;;27.47;51.52;99682.23;1688459;84;21432;-90
2021/07/30 09:01:12;;;;;;;7.15;5.62;;;;;;;27.49;51.33;99680.63;1686718;84;21104;-86
2021/07/30 09:03:41;;;;;;;9.73;5.55;;;;;;;27.49;51.97;99680.09;1678312;84;21496;-88
2021/07/30 09:06:21;;;;;;;9.83;5.03;;;;;;;27.65;52.39;99681.98;1672504;84;21009;-81
2021/07/30 09:09:12;;;;;;;6.10;5.08;;;;;;;27.79;51.75;99682.97;1661138;86;22550;-88
2021/07/30 09:11:39;;;;;;;10.35;4.92;;;;;;;28.02;51.43;99675.13;1663255;86;21039;-83
2021/07/30 09:14:10;;;;;;;9.85;5.50;;;;;;;28.15;50.13;99679.63;1673377;85;21054;-83
2021/07/30 09:16:48;;;;;;;7.17;5.50;;;;;;;28.27;49.51;99681.37;1673470;85;21081;-83
2021/07/30 09:19:15;;;;;;;6.10;4.90;;;;;;;28.30;48.71;99683.09;1674237;85;21104;-84
2021/07/30 09:21:41;;;;;;;10.13;8.95;;;;;;;28.11;48.49;99679.05;1673833;85;22226;-85
2021/07/30 09:24:10;;;;;;;6.78;5.65;;;;;;;27.94;49.00;99677.75;1673492;85;21388;-88
2021/07/30 09:26:47;;;;;;;8.50;5.25;;;;;;;27.92;49.76;99680.72;1650502;85;21031;-87
2021/07/30 09:29:21;;;;;;;12.13;6.17;;;;;;;28.05;49.40;99680.05;1679893;85;21507;-90
2021/07/30 09:31:59;;;;;;;5.83;5.25;;;;;;;28.09;49.55;99676.59;1686761;85;21066;-85
2021/07/30 09:34:35;;;;;;;6.55;5.25;;;;;;;28.03;49.31;99676.77;1701578;83;21787;-86
2021/07/30 09:37:14;;;;;;;8.13;6.53;;;;;;;28.04;50.21;99679.23;1684001;85;21496;-86
2021/07/30 09:39:42;;;;;;;6.17;5.58;;;;;;;28.13;49.42;99673.64;1671443;85;21009;-84
2021/07/30 09:42:20;;;;;;;17.60;5.62;;;;;;;28.31;49.42;99673.87;1683215;85;21357;-84
2021/07/30 09:45:00;;;;;;;6.50;5.35;;;;;;;28.39;48.48;99678.03;1678463;85;21081;-81
2021/07/30 09:47:35;;;;;;;6.40;5.37;;;;;;;28.38;48.66;99679.12;1706445;84;22473;-81
2021/07/30 09:50:04;;;;;;;6.33;5.20;;;;;;;28.40;48.55;99676.95;1652672;85;21040;-83
2021/07/30 09:52:36;;;;;;;7.03;5.42;;;;;;;28.43;48.74;99682.69;1678777;85;21045;-88
2021/07/30 09:55:07;;;;;;;9.83;5.47;;;;;;;28.37;47.40;99677.45;1701302;84;21510;-85
2021/07/30 09:57:36;;;;;;;5.25;4.75;;;;;;;28.38;47.39;99683.19;1700339;84;21035;-83
2021/07/30 10:00:15;;;;;;;9.33;5.15;;;;;;;28.48;46.24;99675.96;1700461;84;22604;-86
2021/07/30 10:02:44;;;;;;;6.15;5.12;;;;;;;28.58;46.80;99679.32;1700435;84;21390;-84
2021/07/30 10:05:11;;;;;;;7.25;4.75;;;;;;;28.76;46.02;99675.42;1700316;84;21584;-85
2021/07/30 10:07:40;;;;;;;5.05;4.65;;;;;;;28.91;45.48;99682.36;1700298;84;21078;-84
2021/07/30 10:12:38;;;;;;;4.75;4.35;;;;;;;28.98;43.98;99681.61;1700371;84;21850;-85
2021/07/30 10:15:07;;;;;;;5.12;4.55;;;;;;;29.00;43.69;99680.81;1695715;84;21497;-83
2021/07/30 10:17:35;;;;;;;4.97;4.50;;;;;;;29.10;42.73;99678.71;1684223;85;21089;-81
2021/07/30 10:20:07;;;;;;;12.53;4.80;;;;;;;29.22;43.30;99673.08;1684644;85;21431;-83
2021/07/30 10:23:10;;;;;;;11.43;4.90;;;;;;;29.43;43.54;99668.59;1685517;85;21362;-82
2021/07/30 10:25:39;;;;;;;;;;;;;;;29.43;43.54;99668.59;1688065;84;21788;-81
2021/07/30 10:28:14;;;;;;;5.47;4.95;;;;;;;29.50;44.55;99659.16;1685265;85;20176;-83
2021/07/30 10:31:02;;;;;;;6.97;5.28;;;;;;;29.74;43.60;99677.26;1684712;85;20978;-84
2021/07/30 10:33:37;;;;;;;6.58;4.85;;;;;;;29.84;43.38;99676.48;1699091;84;21023;-85
2021/07/30 10:36:24;;;;;;;5.37;4.72;;;;;;;30.25;43.93;99674.76;1701646;84;21595;-84
2021/07/30 10:39:11;;;;;;;11.18;6.85;;;;;;;30.25;43.93;99674.76;1701399;84;22216;-83
2021/07/30 10:41:40;;;;;;;7.67;5.30;;;;;;;30.48;43.17;99669.35;1701453;84;20964;-85
2021/07/30 10:44:08;;;;;;;7.53;4.75;;;;;;;30.54;41.71;99668.83;1701407;84;21012;-85
2021/07/30 10:46:34;;;;;;;7.45;4.75;;;;;;;30.54;41.56;99675.09;1701811;84;20980;-84
2021/07/30 10:49:01;;;;;;;5.10;4.60;;;;;;;30.50;41.33;99671.29;1700345;84;20949;-84
2021/07/30 10:51:29;;;;;;;8.55;4.55;;;;;;;30.48;41.88;99668.80;1670757;84;22256;-85
2021/07/30 10:54:05;;;;;;;12.73;4.90;;;;;;;30.61;41.31;99671.58;1698395;84;21091;-85
2021/07/30 10:56:39;;;;;;;5.97;4.87;;;;;;;30.70;41.48;99671.34;1698501;84;20984;-85
2021/07/30 10:59:06;;;;;;;6.80;4.60;;;;;;;30.94;41.43;99661.25;1698545;84;20981;-84
2021/07/30 11:01:42;;;;;;;5.60;5.05;;;;;;;30.96;40.85;99665.33;1698548;84;21424;-85
2021/07/30 11:04:12;;;;;;;7.05;5.05;;;;;;;30.96;41.73;99663.16;1698499;84;22226;-85
2021/07/30 11:06:47;;;;;;;5.78;5.22;;;;;;;31.20;40.81;99676.55;1670462;84;21024;-82
2021/07/30 11:09:17;;;;;;;7.50;4.80;;;;;;;31.20;40.17;99668.36;1698537;84;20957;-85
2021/07/30 11:11:52;;;;;;;8.70;6.42;;;;;;;31.15;40.67;99668.33;1670438;84;21440;-83
2021/07/30 11:14:31;;;;;;;6.30;5.70;;;;;;;31.09;41.03;99664.53;1698571;84;21026;-82
2021/07/30 11:17:01;;;;;;;7.42;5.00;;;;;;;31.17;41.84;99672.14;1698520;84;22254;-83
2021/07/30 11:19:39;;;;;;;11.68;4.80;;;;;;;31.32;41.63;99660.70;1698353;84;20993;-81
2021/07/30 11:22:12;;;;;;;7.42;4.78;;;;;;;31.36;40.33;99669.69;1698471;84;21031;-80
2021/07/30 11:24:43;;;;;;;5.65;4.55;;;;;;;31.19;40.33;99663.16;1697736;84;21487;-85
2021/07/30 11:27:12;;;;;;;16.12;5.72;;;;;;;31.14;39.46;99654.41;1697677;84;20980;-84
2021/07/30 11:29:44;;;;;;;23.73;6.83;;;;;;;31.23;39.77;99656.89;1695820;84;21771;-80
2021/07/30 11:32:15;;;;;;;29.75;8.18;;;;;;;31.20;40.52;99657.97;1690284;85;29435;-86
2021/07/30 11:34:47;;;;;;;5.72;4.62;;;;;;;31.11;37.67;99656.89;1667068;85;21371;-84
2021/07/30 11:37:24;;;;;;;12.10;4.90;;;;;;;30.94;40.15;99659.34;1689917;85;21526;-88
2021/07/30 11:39:53;;;;;;;5.00;4.60;;;;;;;30.83;39.77;99649.53;1665925;85;21022;-80
2021/07/30 11:42:30;;;;;;;5.80;4.55;;;;;;;30.73;39.58;99647.62;1690299;85;21873;-81